sensor_id;sensor_type;location;lat;lon;timestamp;pressure;altitude;pressure_sealevel;temperature;humidity
35577;BME280;21680;52.400;16.920;2023-02-03T00:01:17;101412.70;;;-1.62;93.51
35577;BME280;21680;52.400;16.920;2023-02-03T00:03:42;101412.71;;;-1.61;93.57
35577;BME280;21680;52.400;16.920;2023-02-03T00:06:08;101411.33;;;-1.61;93.62
35577;BME280;21680;52.400;16.920;2023-02-03T00:08:35;101407.09;;;-1.62;93.60
35577;BME280;21680;52.400;16.920;2023-02-03T00:11:02;101410.06;;;-1.62;93.73
35577;BME280;21680;52.400;16.920;2023-02-03T00:13:28;101407.25;;;-1.63;93.44
35577;BME280;21680;52.400;16.920;2023-02-03T00:15:53;101413.20;;;-1.63;93.64
35577;BME280;21680;52.400;16.920;2023-02-03T00:18:19;101408.31;;;-1.62;93.88
35577;BME280;21680;52.400;16.920;2023-02-03T00:20:44;101403.94;;;-1.62;93.77
35577;BME280;21680;52.400;16.920;2023-02-03T00:23:11;101402.36;;;-1.62;93.83
35577;BME280;21680;52.400;16.920;2023-02-03T00:25:37;101396.23;;;-1.61;93.80
35577;BME280;21680;52.400;16.920;2023-02-03T00:28:03;101393.08;;;-1.62;94.01
35577;BME280;21680;52.400;16.920;2023-02-03T00:30:30;101393.41;;;-1.62;94.12
35577;BME280;21680;52.400;16.920;2023-02-03T00:32:55;101392.02;;;-1.63;93.82
35577;BME280;21680;52.400;16.920;2023-02-03T00:35:21;101386.90;;;-1.65;93.91
35577;BME280;21680;52.400;16.920;2023-02-03T00:37:54;101382.16;;;-1.65;94.14
35577;BME280;21680;52.400;16.920;2023-02-03T00:40:21;101382.17;;;-1.65;94.06
35577;BME280;21680;52.400;16.920;2023-02-03T00:42:46;101380.77;;;-1.65;94.06
35577;BME280;21680;52.400;16.920;2023-02-03T00:45:12;101380.24;;;-1.65;94.35
35577;BME280;21680;52.400;16.920;2023-02-03T00:47:37;101375.86;;;-1.65;94.16
35577;BME280;21680;52.400;16.920;2023-02-03T00:50:04;101367.80;;;-1.65;94.34
35577;BME280;21680;52.400;16.920;2023-02-03T00:52:30;101361.49;;;-1.64;94.15
35577;BME280;21680;52.400;16.920;2023-02-03T00:54:55;101358.00;;;-1.64;94.11
35577;BME280;21680;52.400;16.920;2023-02-03T00:57:21;101348.70;;;-1.64;94.32
35577;BME280;21680;52.400;16.920;2023-02-03T00:59:46;101337.67;;;-1.64;94.34
35577;BME280;21680;52.400;16.920;2023-02-03T01:02:11;101333.48;;;-1.64;94.09
35577;BME280;21680;52.400;16.920;2023-02-03T01:04:36;101327.15;;;-1.65;94.21
35577;BME280;21680;52.400;16.920;2023-02-03T01:07:02;101328.34;;;-1.67;94.30
35577;BME280;21680;52.400;16.920;2023-02-03T01:09:27;101325.16;;;-1.68;94.12
35577;BME280;21680;52.400;16.920;2023-02-03T01:11:52;101318.66;;;-1.70;94.26
35577;BME280;21680;52.400;16.920;2023-02-03T01:14:18;101304.29;;;-1.70;94.28
35577;BME280;21680;52.400;16.920;2023-02-03T01:16:43;101295.67;;;-1.71;94.32
35577;BME280;21680;52.400;16.920;2023-02-03T01:19:08;101286.70;;;-1.73;94.48
35577;BME280;21680;52.400;16.920;2023-02-03T01:21:34;101276.86;;;-1.75;94.44
35577;BME280;21680;52.400;16.920;2023-02-03T01:24:00;101271.25;;;-1.75;94.42
35577;BME280;21680;52.400;16.920;2023-02-03T01:26:26;101260.05;;;-1.75;94.38
35577;BME280;21680;52.400;16.920;2023-02-03T01:28:57;101255.48;;;-1.75;94.73
35577;BME280;21680;52.400;16.920;2023-02-03T01:31:25;101256.20;;;-1.75;94.48
35577;BME280;21680;52.400;16.920;2023-02-03T01:33:52;101249.90;;;-1.74;94.78
35577;BME280;21680;52.400;16.920;2023-02-03T01:36:19;101243.27;;;-1.72;94.91
35577;BME280;21680;52.400;16.920;2023-02-03T01:38:45;101238.21;;;-1.71;94.72
35577;BME280;21680;52.400;16.920;2023-02-03T01:41:17;101236.84;;;-1.70;94.73
35577;BME280;21680;52.400;16.920;2023-02-03T01:43:46;101244.40;;;-1.68;94.89
35577;BME280;21680;52.400;16.920;2023-02-03T01:46:17;101245.48;;;-1.65;94.86
35577;BME280;21680;52.400;16.920;2023-02-03T01:48:47;101246.05;;;-1.63;95.00
35577;BME280;21680;52.400;16.920;2023-02-03T01:51:12;101251.49;;;-1.61;94.98
35577;BME280;21680;52.400;16.920;2023-02-03T01:53:38;101262.92;;;-1.59;95.08
35577;BME280;21680;52.400;16.920;2023-02-03T01:56:05;101270.48;;;-1.58;95.02
35577;BME280;21680;52.400;16.920;2023-02-03T01:58:33;101261.02;;;-1.58;94.91
35577;BME280;21680;52.400;16.920;2023-02-03T02:01:01;101254.17;;;-1.59;94.96
35577;BME280;21680;52.400;16.920;2023-02-03T02:03:34;101254.12;;;-1.62;95.03
35577;BME280;21680;52.400;16.920;2023-02-03T02:06:09;101251.64;;;-1.64;94.99
35577;BME280;21680;52.400;16.920;2023-02-03T02:08:36;101247.61;;;-1.64;95.09
35577;BME280;21680;52.400;16.920;2023-02-03T02:11:03;101240.08;;;-1.64;95.22
35577;BME280;21680;52.400;16.920;2023-02-03T02:13:31;101240.40;;;-1.66;94.95
35577;BME280;21680;52.400;16.920;2023-02-03T02:35:27;101166.84;;;-1.75;95.55
35577;BME280;21680;52.400;16.920;2023-02-03T02:38:04;101156.69;;;-1.75;95.66
35577;BME280;21680;52.400;16.920;2023-02-03T02:43:33;101134.80;;;-1.74;95.68
35577;BME280;21680;52.400;16.920;2023-02-03T02:46:02;101133.05;;;-1.74;95.73
35577;BME280;21680;52.400;16.920;2023-02-03T02:48:37;101135.34;;;-1.73;95.86
35577;BME280;21680;52.400;16.920;2023-02-03T02:51:07;101134.13;;;-1.72;95.74
35577;BME280;21680;52.400;16.920;2023-02-03T02:53:39;101136.77;;;-1.72;95.84
35577;BME280;21680;52.400;16.920;2023-02-03T02:56:09;101133.98;;;-1.71;95.90
35577;BME280;21680;52.400;16.920;2023-02-03T02:58:38;101130.14;;;-1.69;95.98
35577;BME280;21680;52.400;16.920;2023-02-03T03:01:07;101135.60;;;-1.67;95.81
35577;BME280;21680;52.400;16.920;2023-02-03T03:03:32;101132.48;;;-1.65;95.93
35577;BME280;21680;52.400;16.920;2023-02-03T03:06:04;101127.23;;;-1.64;96.12
35577;BME280;21680;52.400;16.920;2023-02-03T03:08:40;101124.65;;;-1.61;95.85
35577;BME280;21680;52.400;16.920;2023-02-03T03:11:06;101122.23;;;-1.58;96.32
35577;BME280;21680;52.400;16.920;2023-02-03T03:13:36;101117.02;;;-1.54;96.27
35577;BME280;21680;52.400;16.920;2023-02-03T03:16:03;101104.81;;;-1.50;96.30
35577;BME280;21680;52.400;16.920;2023-02-03T03:18:34;101091.20;;;-1.47;96.18
35577;BME280;21680;52.400;16.920;2023-02-03T03:21:03;101088.61;;;-1.42;96.41
35577;BME280;21680;52.400;16.920;2023-02-03T03:23:50;101085.66;;;-1.40;96.26
35577;BME280;21680;52.400;16.920;2023-02-03T03:29:11;101080.05;;;-1.41;96.20
35577;BME280;21680;52.400;16.920;2023-02-03T03:31:38;101075.84;;;-1.41;96.10
35577;BME280;21680;52.400;16.920;2023-02-03T03:34:07;101067.38;;;-1.44;96.33
35577;BME280;21680;52.400;16.920;2023-02-03T03:36:46;101064.18;;;-1.48;96.09
35577;BME280;21680;52.400;16.920;2023-02-03T03:44:21;101055.09;;;-1.46;96.47
35577;BME280;21680;52.400;16.920;2023-02-03T03:46:59;101059.48;;;-1.45;96.39
35577;BME280;21680;52.400;16.920;2023-02-03T03:49:26;101053.19;;;-1.44;96.43
35577;BME280;21680;52.400;16.920;2023-02-03T03:52:06;101044.97;;;-1.44;96.53
35577;BME280;21680;52.400;16.920;2023-02-03T03:54:35;101034.27;;;-1.44;96.54
35577;BME280;21680;52.400;16.920;2023-02-03T03:59:36;101019.04;;;-1.42;96.69
35577;BME280;21680;52.400;16.920;2023-02-03T04:02:03;101010.10;;;-1.42;96.70
35577;BME280;21680;52.400;16.920;2023-02-03T04:04:30;101014.85;;;-1.40;96.66
35577;BME280;21680;52.400;16.920;2023-02-03T04:06:56;101014.69;;;-1.38;96.79
35577;BME280;21680;52.400;16.920;2023-02-03T04:09:21;101009.27;;;-1.38;96.73
35577;BME280;21680;52.400;16.920;2023-02-03T04:11:46;101000.50;;;-1.38;96.81
35577;BME280;21680;52.400;16.920;2023-02-03T04:14:33;100989.48;;;-1.37;96.83
35577;BME280;21680;52.400;16.920;2023-02-03T04:16:59;100989.30;;;-1.36;97.04
35577;BME280;21680;52.400;16.920;2023-02-03T04:19:25;100987.39;;;-1.34;96.85
35577;BME280;21680;52.400;16.920;2023-02-03T04:21:50;100986.34;;;-1.34;96.95
35577;BME280;21680;52.400;16.920;2023-02-03T04:24:16;100983.04;;;-1.32;97.09
35577;BME280;21680;52.400;16.920;2023-02-03T04:26:41;100980.08;;;-1.30;97.12
35577;BME280;21680;52.400;16.920;2023-02-03T04:29:07;100979.23;;;-1.27;97.15
35577;BME280;21680;52.400;16.920;2023-02-03T04:31:33;100972.59;;;-1.25;97.10
35577;BME280;21680;52.400;16.920;2023-02-03T04:33:58;100963.13;;;-1.24;97.10
35577;BME280;21680;52.400;16.920;2023-02-03T04:36:23;100951.77;;;-1.21;97.12
35577;BME280;21680;52.400;16.920;2023-02-03T04:38:49;100948.27;;;-1.20;97.23
35577;BME280;21680;52.400;16.920;2023-02-03T04:41:15;100939.69;;;-1.18;96.95
35577;BME280;21680;52.400;16.920;2023-02-03T04:43:40;100935.67;;;-1.16;97.19
35577;BME280;21680;52.400;16.920;2023-02-03T04:46:05;100929.55;;;-1.16;97.38
35577;BME280;21680;52.400;16.920;2023-02-03T04:48:31;100927.27;;;-1.14;97.30
35577;BME280;21680;52.400;16.920;2023-02-03T04:51:00;100914.67;;;-1.12;97.33
35577;BME280;21680;52.400;16.920;2023-02-03T04:53:27;100910.13;;;-1.10;97.35
35577;BME280;21680;52.400;16.920;2023-02-03T04:55:52;100905.23;;;-1.09;97.26
35577;BME280;21680;52.400;16.920;2023-02-03T04:58:18;100898.74;;;-1.08;97.29
35577;BME280;21680;52.400;16.920;2023-02-03T05:00:43;100895.60;;;-1.07;97.46
35577;BME280;21680;52.400;16.920;2023-02-03T05:03:08;100889.46;;;-1.06;97.41
35577;BME280;21680;52.400;16.920;2023-02-03T05:05:33;100876.67;;;-1.06;97.37
35577;BME280;21680;52.400;16.920;2023-02-03T05:07:59;100880.69;;;-1.06;97.52
35577;BME280;21680;52.400;16.920;2023-02-03T05:10:24;100880.19;;;-1.04;97.46
35577;BME280;21680;52.400;16.920;2023-02-03T05:12:49;100880.20;;;-1.01;97.61
35577;BME280;21680;52.400;16.920;2023-02-03T05:15:14;100874.61;;;-0.99;97.62
35577;BME280;21680;52.400;16.920;2023-02-03T05:17:40;100868.48;;;-0.98;97.44
35577;BME280;21680;52.400;16.920;2023-02-03T05:20:06;100867.44;;;-0.96;97.77
35577;BME280;21680;52.400;16.920;2023-02-03T05:22:31;100857.46;;;-0.94;97.69
35577;BME280;21680;52.400;16.920;2023-02-03T05:24:59;100853.09;;;-0.92;97.81
35577;BME280;21680;52.400;16.920;2023-02-03T05:27:24;100842.92;;;-0.91;97.80
35577;BME280;21680;52.400;16.920;2023-02-03T05:29:50;100836.61;;;-0.90;97.75
35577;BME280;21680;52.400;16.920;2023-02-03T05:32:15;100828.19;;;-0.90;97.86
35577;BME280;21680;52.400;16.920;2023-02-03T05:34:40;100821.00;;;-0.89;97.80
35577;BME280;21680;52.400;16.920;2023-02-03T05:37:05;100824.33;;;-0.89;97.93
35577;BME280;21680;52.400;16.920;2023-02-03T05:39:31;100821.88;;;-0.89;97.89
35577;BME280;21680;52.400;16.920;2023-02-03T05:41:56;100813.29;;;-0.88;98.00
35577;BME280;21680;52.400;16.920;2023-02-03T05:44:24;100807.16;;;-0.86;98.25
35577;BME280;21680;52.400;16.920;2023-02-03T05:46:56;100797.52;;;-0.85;98.23
35577;BME280;21680;52.400;16.920;2023-02-03T05:49:23;100795.24;;;-0.83;98.24
35577;BME280;21680;52.400;16.920;2023-02-03T05:51:50;100787.52;;;-0.83;98.10
35577;BME280;21680;52.400;16.920;2023-02-03T05:54:16;100780.00;;;-0.82;98.34
35577;BME280;21680;52.400;16.920;2023-02-03T05:56:41;100779.30;;;-0.82;98.09
35577;BME280;21680;52.400;16.920;2023-02-03T05:59:07;100776.33;;;-0.80;98.21
35577;BME280;21680;52.400;16.920;2023-02-03T06:01:33;100773.17;;;-0.78;98.25
35577;BME280;21680;52.400;16.920;2023-02-03T06:03:59;100775.65;;;-0.74;98.35
35577;BME280;21680;52.400;16.920;2023-02-03T06:06:24;100768.29;;;-0.73;98.47
35577;BME280;21680;52.400;16.920;2023-02-03T06:08:51;100761.97;;;-0.71;98.48
35577;BME280;21680;52.400;16.920;2023-02-03T06:11:21;100763.02;;;-0.70;98.64
35577;BME280;21680;52.400;16.920;2023-02-03T06:13:48;100755.67;;;-0.69;98.49
35577;BME280;21680;52.400;16.920;2023-02-03T06:16:14;100754.27;;;-0.67;98.55
35577;BME280;21680;52.400;16.920;2023-02-03T06:18:39;100753.75;;;-0.66;98.68
35577;BME280;21680;52.400;16.920;2023-02-03T06:21:04;100749.89;;;-0.65;98.72
35577;BME280;21680;52.400;16.920;2023-02-03T06:23:30;100744.45;;;-0.64;98.81
35577;BME280;21680;52.400;16.920;2023-02-03T06:25:55;100736.56;;;-0.63;98.62
35577;BME280;21680;52.400;16.920;2023-02-03T06:28:20;100727.45;;;-0.61;98.66
35577;BME280;21680;52.400;16.920;2023-02-03T06:30:49;100716.73;;;-0.60;98.80
35577;BME280;21680;52.400;16.920;2023-02-03T06:33:15;100712.89;;;-0.59;98.84
35577;BME280;21680;52.400;16.920;2023-02-03T06:35:40;100702.89;;;-0.56;99.13
35577;BME280;21680;52.400;16.920;2023-02-03T06:38:06;100696.58;;;-0.53;99.07
35577;BME280;21680;52.400;16.920;2023-02-03T06:40:31;100689.21;;;-0.51;98.98
35577;BME280;21680;52.400;16.920;2023-02-03T06:42:56;100684.48;;;-0.50;99.02
35577;BME280;21680;52.400;16.920;2023-02-03T06:45:21;100680.27;;;-0.47;99.00
35577;BME280;21680;52.400;16.920;2023-02-03T06:47:49;100664.65;;;-0.46;99.19
35577;BME280;21680;52.400;16.920;2023-02-03T06:50:15;100654.30;;;-0.43;99.25
35577;BME280;21680;52.400;16.920;2023-02-03T06:52:41;100644.11;;;-0.40;99.20
35577;BME280;21680;52.400;16.920;2023-02-03T06:55:06;100638.33;;;-0.38;99.26
35577;BME280;21680;52.400;16.920;2023-02-03T06:57:32;100635.00;;;-0.36;99.38
35577;BME280;21680;52.400;16.920;2023-02-03T06:59:58;100628.84;;;-0.35;99.34
35577;BME280;21680;52.400;16.920;2023-02-03T07:02:23;100616.56;;;-0.32;99.26
35577;BME280;21680;52.400;16.920;2023-02-03T07:04:48;100609.00;;;-0.32;99.41
35577;BME280;21680;52.400;16.920;2023-02-03T07:07:14;100600.94;;;-0.30;99.60
35577;BME280;21680;52.400;16.920;2023-02-03T07:09:39;100594.62;;;-0.28;99.33
35577;BME280;21680;52.400;16.920;2023-02-03T07:12:06;100586.00;;;-0.24;99.56
35577;BME280;21680;52.400;16.920;2023-02-03T07:14:32;100577.93;;;-0.20;99.56
35577;BME280;21680;52.400;16.920;2023-02-03T07:17:01;100570.02;;;-0.18;99.52
35577;BME280;21680;52.400;16.920;2023-02-03T07:19:26;100557.91;;;-0.17;99.65
35577;BME280;21680;52.400;16.920;2023-02-03T07:21:52;100546.14;;;-0.13;99.73
35577;BME280;21680;52.400;16.920;2023-02-03T07:24:17;100535.94;;;-0.10;99.78
35577;BME280;21680;52.400;16.920;2023-02-03T07:26:42;100527.34;;;-0.10;99.80
35577;BME280;21680;52.400;16.920;2023-02-03T07:29:07;100524.89;;;-0.09;99.80
35577;BME280;21680;52.400;16.920;2023-02-03T07:31:33;100521.02;;;-0.08;99.85
35577;BME280;21680;52.400;16.920;2023-02-03T07:34:00;100512.76;;;-0.07;99.87
35577;BME280;21680;52.400;16.920;2023-02-03T07:36:27;100508.19;;;-0.06;99.82
35577;BME280;21680;52.400;16.920;2023-02-03T07:38:53;100500.80;;;-0.06;99.94
35577;BME280;21680;52.400;16.920;2023-02-03T07:41:18;100495.36;;;-0.04;99.97
35577;BME280;21680;52.400;16.920;2023-02-03T07:43:44;100488.50;;;-0.01;99.94
35577;BME280;21680;52.400;16.920;2023-02-03T07:46:09;100484.42;;;0.03;100.00
35577;BME280;21680;52.400;16.920;2023-02-03T07:48:34;100475.28;;;0.04;99.98
35577;BME280;21680;52.400;16.920;2023-02-03T07:50:59;100470.89;;;0.05;99.99
35577;BME280;21680;52.400;16.920;2023-02-03T07:53:25;100464.56;;;0.06;100.00
35577;BME280;21680;52.400;16.920;2023-02-03T07:55:50;100451.73;;;0.08;100.00
35577;BME280;21680;52.400;16.920;2023-02-03T07:58:15;100447.69;;;0.08;100.00
35577;BME280;21680;52.400;16.920;2023-02-03T08:00:41;100437.14;;;0.09;100.00
35577;BME280;21680;52.400;16.920;2023-02-03T08:03:06;100426.41;;;0.10;100.00
35577;BME280;21680;52.400;16.920;2023-02-03T08:05:32;100417.45;;;0.11;100.00
35577;BME280;21680;52.400;16.920;2023-02-03T08:07:57;100409.37;;;0.11;100.00
35577;BME280;21680;52.400;16.920;2023-02-03T08:10:23;100396.52;;;0.14;100.00
35577;BME280;21680;52.400;16.920;2023-02-03T08:12:52;100398.98;;;0.17;100.00
35577;BME280;21680;52.400;16.920;2023-02-03T08:15:17;100394.57;;;0.20;100.00
35577;BME280;21680;52.400;16.920;2023-02-03T08:17:44;100379.61;;;0.23;100.00
35577;BME280;21680;52.400;16.920;2023-02-03T08:20:10;100376.62;;;0.25;100.00
35577;BME280;21680;52.400;16.920;2023-02-03T08:22:36;100373.10;;;0.24;100.00
35577;BME280;21680;52.400;16.920;2023-02-03T08:25:01;100370.82;;;0.24;100.00
35577;BME280;21680;52.400;16.920;2023-02-03T08:27:28;100360.64;;;0.23;100.00
35577;BME280;21680;52.400;16.920;2023-02-03T08:29:55;100352.92;;;0.21;100.00
35577;BME280;21680;52.400;16.920;2023-02-03T08:32:21;100343.27;;;0.18;100.00
35577;BME280;21680;52.400;16.920;2023-02-03T08:34:47;100342.58;;;0.17;100.00
35577;BME280;21680;52.400;16.920;2023-02-03T08:37:15;100341.16;;;0.18;100.00
35577;BME280;21680;52.400;16.920;2023-02-03T08:39:40;100330.79;;;0.20;100.00
35577;BME280;21680;52.400;16.920;2023-02-03T08:42:06;100319.86;;;0.25;100.00
35577;BME280;21680;52.400;16.920;2023-02-03T08:44:32;100309.13;;;0.28;100.00
35577;BME280;21680;52.400;16.920;2023-02-03T08:46:59;100298.73;;;0.30;100.00
35577;BME280;21680;52.400;16.920;2023-02-03T08:49:26;100289.25;;;0.30;100.00
35577;BME280;21680;52.400;16.920;2023-02-03T08:51:52;100276.59;;;0.30;100.00
35577;BME280;21680;52.400;16.920;2023-02-03T08:54:18;100272.36;;;0.32;100.00
35577;BME280;21680;52.400;16.920;2023-02-03T08:56:44;100262.16;;;0.34;100.00
35577;BME280;21680;52.400;16.920;2023-02-03T08:59:10;100254.95;;;0.33;100.00
35577;BME280;21680;52.400;16.920;2023-02-03T09:01:36;100251.11;;;0.31;100.00
35577;BME280;21680;52.400;16.920;2023-02-03T09:04:02;100242.14;;;0.32;100.00
35577;BME280;21680;52.400;16.920;2023-02-03T09:06:29;100243.02;;;0.33;100.00
35577;BME280;21680;52.400;16.920;2023-02-03T09:08:55;100237.90;;;0.34;100.00
35577;BME280;21680;52.400;16.920;2023-02-03T09:11:23;100229.45;;;0.37;100.00
35577;BME280;21680;52.400;16.920;2023-02-03T09:13:48;100228.02;;;0.41;100.00
35577;BME280;21680;52.400;16.920;2023-02-03T09:16:16;100221.33;;;0.41;100.00
35577;BME280;21680;52.400;16.920;2023-02-03T09:18:43;100217.27;;;0.43;100.00
35577;BME280;21680;52.400;16.920;2023-02-03T09:21:10;100203.37;;;0.44;100.00
35577;BME280;21680;52.400;16.920;2023-02-03T09:23:36;100195.29;;;0.44;100.00
35577;BME280;21680;52.400;16.920;2023-02-03T09:26:03;100172.95;;;0.44;100.00
35577;BME280;21680;52.400;16.920;2023-02-03T09:28:29;100167.68;;;0.45;100.00
35577;BME280;21680;52.400;16.920;2023-02-03T09:31:01;100155.02;;;0.45;100.00
35577;BME280;21680;52.400;16.920;2023-02-03T09:33:27;100145.19;;;0.45;100.00
35577;BME280;21680;52.400;16.920;2023-02-03T09:35:53;100135.50;;;0.46;100.00
35577;BME280;21680;52.400;16.920;2023-02-03T09:38:19;100130.04;;;0.48;100.00
35577;BME280;21680;52.400;16.920;2023-02-03T09:40:47;100113.13;;;0.51;100.00
35577;BME280;21680;52.400;16.920;2023-02-03T09:46:12;100100.21;;;0.58;100.00
35577;BME280;21680;52.400;16.920;2023-02-03T09:48:51;100082.60;;;0.61;100.00
35577;BME280;21680;52.400;16.920;2023-02-03T09:51:25;100077.67;;;0.61;100.00
35577;BME280;21680;52.400;16.920;2023-02-03T09:54:12;100072.56;;;0.62;100.00
35577;BME280;21680;52.400;16.920;2023-02-03T09:56:40;100051.98;;;0.63;100.00
35577;BME280;21680;52.400;16.920;2023-02-03T09:59:10;100042.16;;;0.61;100.00
35577;BME280;21680;52.400;16.920;2023-02-03T10:06:54;100005.60;;;0.60;100.00
35577;BME280;21680;52.400;16.920;2023-02-03T10:17:38;99962.77;;;0.56;100.00
35577;BME280;21680;52.400;16.920;2023-02-03T10:22:39;99935.34;;;0.57;100.00
35577;BME280;21680;52.400;16.920;2023-02-03T10:25:26;99925.79;;;0.60;100.00
35577;BME280;21680;52.400;16.920;2023-02-03T10:27:58;99909.59;;;0.62;100.00
35577;BME280;21680;52.400;16.920;2023-02-03T10:30:32;99900.40;;;0.64;100.00
35577;BME280;21680;52.400;16.920;2023-02-03T10:33:13;99890.20;;;0.66;100.00
35577;BME280;21680;52.400;16.920;2023-02-03T10:35:48;99883.11;;;0.70;100.00
35577;BME280;21680;52.400;16.920;2023-02-03T10:38:26;99870.77;;;0.72;100.00
35577;BME280;21680;52.400;16.920;2023-02-03T10:40:55;99856.52;;;0.72;100.00
35577;BME280;21680;52.400;16.920;2023-02-03T10:43:21;99848.23;;;0.73;100.00
35577;BME280;21680;52.400;16.920;2023-02-03T10:46:05;99838.86;;;0.76;100.00
35577;BME280;21680;52.400;16.920;2023-02-03T10:48:30;99831.95;;;0.80;100.00
35577;BME280;21680;52.400;16.920;2023-02-03T10:50:56;99823.96;;;0.84;100.00
35577;BME280;21680;52.400;16.920;2023-02-03T10:53:33;99805.44;;;0.87;100.00
35577;BME280;21680;52.400;16.920;2023-02-03T10:56:04;99795.33;;;0.92;100.00
35577;BME280;21680;52.400;16.920;2023-02-03T10:58:32;99786.59;;;0.98;100.00
35577;BME280;21680;52.400;16.920;2023-02-03T11:01:11;99775.61;;;1.02;100.00
35577;BME280;21680;52.400;16.920;2023-02-03T11:03:40;99771.67;;;1.06;100.00
35577;BME280;21680;52.400;16.920;2023-02-03T11:06:12;99762.25;;;1.11;100.00
35577;BME280;21680;52.400;16.920;2023-02-03T11:08:43;99755.80;;;1.17;100.00
35577;BME280;21680;52.400;16.920;2023-02-03T11:11:24;99749.38;;;1.22;100.00
35577;BME280;21680;52.400;16.920;2023-02-03T11:16:29;99731.09;;;1.29;100.00
35577;BME280;21680;52.400;16.920;2023-02-03T11:18:59;99717.79;;;1.35;100.00
35577;BME280;21680;52.400;16.920;2023-02-03T11:21:40;99707.80;;;1.41;100.00
35577;BME280;21680;52.400;16.920;2023-02-03T11:24:23;99704.89;;;1.45;100.00
35577;BME280;21680;52.400;16.920;2023-02-03T11:26:57;99700.95;;;1.48;100.00
35577;BME280;21680;52.400;16.920;2023-02-03T11:29:29;99690.45;;;1.54;100.00
35577;BME280;21680;52.400;16.920;2023-02-03T11:31:57;99676.89;;;1.61;100.00
35577;BME280;21680;52.400;16.920;2023-02-03T11:34:24;99669.86;;;1.69;100.00
35577;BME280;21680;52.400;16.920;2023-02-03T11:36:52;99661.18;;;1.78;100.00
35577;BME280;21680;52.400;16.920;2023-02-03T11:41:53;99655.57;;;1.92;100.00
35577;BME280;21680;52.400;16.920;2023-02-03T11:44:25;99653.06;;;2.01;100.00
35577;BME280;21680;52.400;16.920;2023-02-03T11:46:56;99649.91;;;2.07;100.00
35577;BME280;21680;52.400;16.920;2023-02-03T11:52:17;99644.02;;;2.17;100.00
35577;BME280;21680;52.400;16.920;2023-02-03T11:55:02;99633.16;;;2.22;100.00
35577;BME280;21680;52.400;16.920;2023-02-03T12:00:41;99619.09;;;2.34;100.00
35577;BME280;21680;52.400;16.920;2023-02-03T12:03:05;99618.89;;;2.42;100.00
35577;BME280;21680;52.400;16.920;2023-02-03T12:06:06;99614.89;;;2.46;100.00
35577;BME280;21680;52.400;16.920;2023-02-03T12:19:30;99603.76;;;2.89;100.00
35577;BME280;21680;52.400;16.920;2023-02-03T12:22:38;99604.88;;;3.06;100.00
35577;BME280;21680;52.400;16.920;2023-02-03T12:30:51;99594.73;;;3.48;100.00
35577;BME280;21680;52.400;16.920;2023-02-03T12:33:26;99589.54;;;3.62;100.00
35577;BME280;21680;52.400;16.920;2023-02-03T12:36:08;99585.63;;;3.85;100.00
35577;BME280;21680;52.400;16.920;2023-02-03T12:38:41;99573.45;;;4.05;100.00
35577;BME280;21680;52.400;16.920;2023-02-03T12:41:13;99575.52;;;4.17;100.00
35577;BME280;21680;52.400;16.920;2023-02-03T12:43:43;99561.77;;;4.31;100.00
35577;BME280;21680;52.400;16.920;2023-02-03T12:48:51;99562.91;;;4.44;100.00
35577;BME280;21680;52.400;16.920;2023-02-03T12:51:44;99563.33;;;4.47;100.00
35577;BME280;21680;52.400;16.920;2023-02-03T12:54:33;99568.65;;;4.46;100.00
35577;BME280;21680;52.400;16.920;2023-02-03T13:03:01;99590.56;;;4.47;100.00
35577;BME280;21680;52.400;16.920;2023-02-03T13:08:31;99592.36;;;4.46;100.00
35577;BME280;21680;52.400;16.920;2023-02-03T13:11:21;99601.42;;;4.45;100.00
35577;BME280;21680;52.400;16.920;2023-02-03T13:13:59;99605.61;;;4.47;100.00
35577;BME280;21680;52.400;16.920;2023-02-03T13:16:34;99606.20;;;4.50;100.00
35577;BME280;21680;52.400;16.920;2023-02-03T13:19:19;99603.11;;;4.52;100.00
35577;BME280;21680;52.400;16.920;2023-02-03T13:21:49;99612.96;;;4.48;100.00
35577;BME280;21680;52.400;16.920;2023-02-03T13:24:15;99607.70;;;4.47;100.00
35577;BME280;21680;52.400;16.920;2023-02-03T13:27:02;99610.59;;;4.46;100.00
35577;BME280;21680;52.400;16.920;2023-02-03T13:32:45;99618.19;;;4.46;100.00
35577;BME280;21680;52.400;16.920;2023-02-03T13:35:31;99614.50;;;4.45;100.00
35577;BME280;21680;52.400;16.920;2023-02-03T13:43:16;99632.89;;;4.45;100.00
35577;BME280;21680;52.400;16.920;2023-02-03T13:45:47;99631.15;;;4.49;100.00
35577;BME280;21680;52.400;16.920;2023-02-03T13:48:19;99641.84;;;4.47;100.00
35577;BME280;21680;52.400;16.920;2023-02-03T13:50:47;99649.23;;;4.43;100.00
35577;BME280;21680;52.400;16.920;2023-02-03T13:53:18;99666.88;;;4.39;100.00
35577;BME280;21680;52.400;16.920;2023-02-03T13:55:57;99670.80;;;4.39;100.00
35577;BME280;21680;52.400;16.920;2023-02-03T13:58:26;99672.15;;;4.35;100.00
35577;BME280;21680;52.400;16.920;2023-02-03T14:13:59;99681.80;;;4.05;100.00
35577;BME280;21680;52.400;16.920;2023-02-03T14:16:45;99683.64;;;3.98;100.00
35577;BME280;21680;52.400;16.920;2023-02-03T14:22:01;99678.95;;;3.84;100.00
35577;BME280;21680;52.400;16.920;2023-02-03T14:24:32;99678.77;;;3.79;100.00
35577;BME280;21680;52.400;16.920;2023-02-03T14:27:01;99684.23;;;3.73;100.00
35577;BME280;21680;52.400;16.920;2023-02-03T14:29:33;99682.42;;;3.69;100.00
35577;BME280;21680;52.400;16.920;2023-02-03T14:32:04;99686.42;;;3.71;100.00
35577;BME280;21680;52.400;16.920;2023-02-03T14:37:28;99686.41;;;3.82;100.00
35577;BME280;21680;52.400;16.920;2023-02-03T14:47:53;99672.94;;;3.90;100.00
35577;BME280;21680;52.400;16.920;2023-02-03T14:53:55;99681.61;;;3.95;100.00
35577;BME280;21680;52.400;16.920;2023-02-03T14:59:35;99699.44;;;4.01;100.00
35577;BME280;21680;52.400;16.920;2023-02-03T15:04:27;99708.84;;;4.05;100.00
35577;BME280;21680;52.400;16.920;2023-02-03T15:06:53;99706.83;;;4.08;100.00